sensor_id;sensor_type;location;lat;lon;timestamp;P1;durP1;ratioP1;P2;durP2;ratioP2
13173;SDS011;6652;48.802;9.190;2023-03-08T00:02:03;13.10;;;7.78;;
13173;SDS011;6652;48.802;9.190;2023-03-08T00:04:30;16.02;;;8.32;;
13173;SDS011;6652;48.802;9.190;2023-03-08T00:06:58;14.55;;;7.70;;
13173;SDS011;6652;48.802;9.190;2023-03-08T00:09:26;15.95;;;6.85;;
13173;SDS011;6652;48.802;9.190;2023-03-08T00:11:53;15.85;;;8.32;;
13173;SDS011;6652;48.802;9.190;2023-03-08T00:14:19;14.63;;;7.50;;
13173;SDS011;6652;48.802;9.190;2023-03-08T00:16:46;18.85;;;6.60;;
13173;SDS011;6652;48.802;9.190;2023-03-08T00:19:13;14.45;;;7.82;;
13173;SDS011;6652;48.802;9.190;2023-03-08T00:21:40;14.95;;;7.85;;
13173;SDS011;6652;48.802;9.190;2023-03-08T00:24:07;15.65;;;7.65;;
13173;SDS011;6652;48.802;9.190;2023-03-08T00:26:35;13.20;;;7.80;;
13173;SDS011;6652;48.802;9.190;2023-03-08T00:29:02;15.45;;;8.77;;
13173;SDS011;6652;48.802;9.190;2023-03-08T00:31:29;15.38;;;8.57;;
13173;SDS011;6652;48.802;9.190;2023-03-08T00:33:56;15.27;;;8.23;;
13173;SDS011;6652;48.802;9.190;2023-03-08T00:36:23;15.38;;;8.00;;
13173;SDS011;6652;48.802;9.190;2023-03-08T00:38:49;15.80;;;8.15;;
13173;SDS011;6652;48.802;9.190;2023-03-08T00:41:16;23.98;;;8.90;;
13173;SDS011;6652;48.802;9.190;2023-03-08T00:43:45;18.63;;;8.13;;
13173;SDS011;6652;48.802;9.190;2023-03-08T00:46:12;13.55;;;7.70;;
13173;SDS011;6652;48.802;9.190;2023-03-08T00:48:40;15.18;;;7.85;;
13173;SDS011;6652;48.802;9.190;2023-03-08T00:51:07;14.20;;;7.97;;
13173;SDS011;6652;48.802;9.190;2023-03-08T00:53:37;17.42;;;8.68;;
13173;SDS011;6652;48.802;9.190;2023-03-08T00:56:04;15.63;;;7.95;;
13173;SDS011;6652;48.802;9.190;2023-03-08T00:58:31;13.40;;;7.93;;
13173;SDS011;6652;48.802;9.190;2023-03-08T01:00:59;15.68;;;8.13;;
13173;SDS011;6652;48.802;9.190;2023-03-08T01:03:26;17.13;;;7.78;;
13173;SDS011;6652;48.802;9.190;2023-03-08T01:05:53;18.17;;;8.98;;
13173;SDS011;6652;48.802;9.190;2023-03-08T01:08:21;16.15;;;8.93;;
13173;SDS011;6652;48.802;9.190;2023-03-08T01:10:49;19.25;;;8.82;;
13173;SDS011;6652;48.802;9.190;2023-03-08T01:13:18;19.17;;;8.05;;
13173;SDS011;6652;48.802;9.190;2023-03-08T01:15:44;16.42;;;8.77;;
13173;SDS011;6652;48.802;9.190;2023-03-08T01:18:13;17.92;;;8.30;;
13173;SDS011;6652;48.802;9.190;2023-03-08T01:20:40;22.85;;;9.85;;
13173;SDS011;6652;48.802;9.190;2023-03-08T01:23:07;18.15;;;8.80;;
13173;SDS011;6652;48.802;9.190;2023-03-08T01:25:35;19.98;;;9.13;;
13173;SDS011;6652;48.802;9.190;2023-03-08T01:28:02;17.98;;;8.10;;
13173;SDS011;6652;48.802;9.190;2023-03-08T01:30:29;18.88;;;8.38;;
13173;SDS011;6652;48.802;9.190;2023-03-08T01:32:56;17.48;;;9.52;;
13173;SDS011;6652;48.802;9.190;2023-03-08T01:35:24;16.90;;;9.23;;
13173;SDS011;6652;48.802;9.190;2023-03-08T01:37:52;19.95;;;10.27;;
13173;SDS011;6652;48.802;9.190;2023-03-08T01:40:21;18.17;;;8.88;;
13173;SDS011;6652;48.802;9.190;2023-03-08T01:42:51;22.63;;;10.43;;
13173;SDS011;6652;48.802;9.190;2023-03-08T01:48:55;19.10;;;9.45;;
13173;SDS011;6652;48.802;9.190;2023-03-08T01:55:22;22.15;;;10.02;;
13173;SDS011;6652;48.802;9.190;2023-03-08T01:57:50;17.27;;;9.43;;
13173;SDS011;6652;48.802;9.190;2023-03-08T02:00:24;19.48;;;9.40;;
13173;SDS011;6652;48.802;9.190;2023-03-08T02:02:57;25.70;;;10.30;;
13173;SDS011;6652;48.802;9.190;2023-03-08T02:05:26;21.65;;;10.68;;
13173;SDS011;6652;48.802;9.190;2023-03-08T02:08:02;18.50;;;9.25;;
13173;SDS011;6652;48.802;9.190;2023-03-08T02:10:29;20.90;;;10.45;;
13173;SDS011;6652;48.802;9.190;2023-03-08T02:13:10;20.50;;;10.27;;
13173;SDS011;6652;48.802;9.190;2023-03-08T02:15:41;24.88;;;10.05;;
13173;SDS011;6652;48.802;9.190;2023-03-08T02:18:10;19.80;;;9.57;;
13173;SDS011;6652;48.802;9.190;2023-03-08T02:20:44;20.63;;;9.80;;
13173;SDS011;6652;48.802;9.190;2023-03-08T02:23:13;20.95;;;9.30;;
13173;SDS011;6652;48.802;9.190;2023-03-08T02:25:46;22.52;;;10.48;;
13173;SDS011;6652;48.802;9.190;2023-03-08T02:28:21;19.75;;;9.52;;
13173;SDS011;6652;48.802;9.190;2023-03-08T02:30:50;21.23;;;10.32;;
13173;SDS011;6652;48.802;9.190;2023-03-08T02:33:22;18.95;;;10.60;;
13173;SDS011;6652;48.802;9.190;2023-03-08T02:35:49;21.52;;;10.35;;
13173;SDS011;6652;48.802;9.190;2023-03-08T02:38:19;20.30;;;10.40;;
13173;SDS011;6652;48.802;9.190;2023-03-08T02:40:50;19.13;;;9.27;;
13173;SDS011;6652;48.802;9.190;2023-03-08T02:43:30;21.30;;;9.70;;
13173;SDS011;6652;48.802;9.190;2023-03-08T02:46:05;23.00;;;9.93;;
13173;SDS011;6652;48.802;9.190;2023-03-08T02:48:33;17.08;;;9.95;;
13173;SDS011;6652;48.802;9.190;2023-03-08T02:51:04;20.48;;;9.98;;
13173;SDS011;6652;48.802;9.190;2023-03-08T02:53:41;18.70;;;9.63;;
13173;SDS011;6652;48.802;9.190;2023-03-08T02:56:18;22.00;;;10.25;;
13173;SDS011;6652;48.802;9.190;2023-03-08T02:58:55;18.98;;;9.68;;
13173;SDS011;6652;48.802;9.190;2023-03-08T03:01:24;20.33;;;10.00;;
13173;SDS011;6652;48.802;9.190;2023-03-08T03:03:55;17.30;;;9.63;;
13173;SDS011;6652;48.802;9.190;2023-03-08T03:06:24;18.92;;;10.40;;
13173;SDS011;6652;48.802;9.190;2023-03-08T03:08:55;16.98;;;9.20;;
13173;SDS011;6652;48.802;9.190;2023-03-08T03:11:30;22.20;;;8.95;;
13173;SDS011;6652;48.802;9.190;2023-03-08T03:14:01;21.25;;;10.55;;
13173;SDS011;6652;48.802;9.190;2023-03-08T03:16:30;20.55;;;9.63;;
13173;SDS011;6652;48.802;9.190;2023-03-08T03:18:57;17.83;;;9.63;;
13173;SDS011;6652;48.802;9.190;2023-03-08T03:21:27;17.42;;;8.77;;
13173;SDS011;6652;48.802;9.190;2023-03-08T03:24:04;18.52;;;9.85;;
13173;SDS011;6652;48.802;9.190;2023-03-08T03:26:37;23.90;;;10.55;;
13173;SDS011;6652;48.802;9.190;2023-03-08T03:29:04;19.25;;;10.40;;
13173;SDS011;6652;48.802;9.190;2023-03-08T03:31:30;18.90;;;9.80;;
13173;SDS011;6652;48.802;9.190;2023-03-08T03:33:58;17.05;;;8.48;;
13173;SDS011;6652;48.802;9.190;2023-03-08T03:36:25;19.27;;;10.63;;
13173;SDS011;6652;48.802;9.190;2023-03-08T03:38:51;20.77;;;9.30;;
13173;SDS011;6652;48.802;9.190;2023-03-08T03:41:29;20.90;;;9.85;;
13173;SDS011;6652;48.802;9.190;2023-03-08T03:44:01;20.05;;;9.15;;
13173;SDS011;6652;48.802;9.190;2023-03-08T03:46:31;21.63;;;9.90;;
13173;SDS011;6652;48.802;9.190;2023-03-08T03:49:00;20.05;;;9.65;;
13173;SDS011;6652;48.802;9.190;2023-03-08T03:51:29;20.65;;;10.02;;
13173;SDS011;6652;48.802;9.190;2023-03-08T03:53:58;20.42;;;9.95;;
13173;SDS011;6652;48.802;9.190;2023-03-08T03:56:28;15.50;;;8.30;;
13173;SDS011;6652;48.802;9.190;2023-03-08T03:58:56;18.65;;;8.98;;
13173;SDS011;6652;48.802;9.190;2023-03-08T04:01:26;18.80;;;9.52;;
13173;SDS011;6652;48.802;9.190;2023-03-08T04:03:56;18.67;;;9.40;;
13173;SDS011;6652;48.802;9.190;2023-03-08T04:06:24;21.35;;;9.40;;
13173;SDS011;6652;48.802;9.190;2023-03-08T04:08:53;19.50;;;9.63;;
13173;SDS011;6652;48.802;9.190;2023-03-08T04:11:21;16.90;;;8.75;;
13173;SDS011;6652;48.802;9.190;2023-03-08T04:13:51;21.70;;;9.75;;
13173;SDS011;6652;48.802;9.190;2023-03-08T04:16:18;17.40;;;8.70;;
13173;SDS011;6652;48.802;9.190;2023-03-08T04:18:46;17.85;;;8.93;;
13173;SDS011;6652;48.802;9.190;2023-03-08T04:21:14;18.20;;;9.15;;
13173;SDS011;6652;48.802;9.190;2023-03-08T04:23:40;20.75;;;9.50;;
13173;SDS011;6652;48.802;9.190;2023-03-08T04:26:07;18.10;;;9.52;;
13173;SDS011;6652;48.802;9.190;2023-03-08T04:28:34;18.00;;;9.10;;
13173;SDS011;6652;48.802;9.190;2023-03-08T04:31:11;20.15;;;9.55;;
13173;SDS011;6652;48.802;9.190;2023-03-08T04:33:38;17.52;;;9.27;;
13173;SDS011;6652;48.802;9.190;2023-03-08T04:36:05;17.45;;;9.52;;
13173;SDS011;6652;48.802;9.190;2023-03-08T04:38:33;20.52;;;10.10;;
13173;SDS011;6652;48.802;9.190;2023-03-08T04:41:03;15.93;;;9.18;;
13173;SDS011;6652;48.802;9.190;2023-03-08T04:43:35;21.40;;;9.32;;
13173;SDS011;6652;48.802;9.190;2023-03-08T04:46:03;19.63;;;9.48;;
13173;SDS011;6652;48.802;9.190;2023-03-08T04:48:31;18.65;;;9.55;;
13173;SDS011;6652;48.802;9.190;2023-03-08T04:50:59;16.40;;;8.82;;
13173;SDS011;6652;48.802;9.190;2023-03-08T04:53:28;17.98;;;9.00;;
13173;SDS011;6652;48.802;9.190;2023-03-08T04:55:56;19.38;;;8.45;;
13173;SDS011;6652;48.802;9.190;2023-03-08T04:58:24;15.93;;;8.93;;
13173;SDS011;6652;48.802;9.190;2023-03-08T05:00:51;24.63;;;9.57;;
13173;SDS011;6652;48.802;9.190;2023-03-08T05:03:18;20.67;;;9.57;;
13173;SDS011;6652;48.802;9.190;2023-03-08T05:05:47;20.50;;;9.57;;
13173;SDS011;6652;48.802;9.190;2023-03-08T05:08:15;20.80;;;9.55;;
13173;SDS011;6652;48.802;9.190;2023-03-08T05:10:45;19.77;;;10.13;;
13173;SDS011;6652;48.802;9.190;2023-03-08T05:13:13;24.50;;;10.48;;
13173;SDS011;6652;48.802;9.190;2023-03-08T05:15:40;20.38;;;9.65;;
13173;SDS011;6652;48.802;9.190;2023-03-08T05:18:07;22.40;;;10.35;;
13173;SDS011;6652;48.802;9.190;2023-03-08T05:20:33;21.52;;;9.80;;
13173;SDS011;6652;48.802;9.190;2023-03-08T05:23:01;20.23;;;9.70;;
13173;SDS011;6652;48.802;9.190;2023-03-08T05:25:28;20.02;;;10.07;;
13173;SDS011;6652;48.802;9.190;2023-03-08T05:27:56;19.05;;;10.02;;
13173;SDS011;6652;48.802;9.190;2023-03-08T05:30:23;23.25;;;10.20;;
13173;SDS011;6652;48.802;9.190;2023-03-08T05:32:50;22.33;;;10.50;;
13173;SDS011;6652;48.802;9.190;2023-03-08T05:35:17;21.17;;;9.85;;
13173;SDS011;6652;48.802;9.190;2023-03-08T05:37:44;20.42;;;10.45;;
13173;SDS011;6652;48.802;9.190;2023-03-08T05:40:12;19.65;;;10.93;;
13173;SDS011;6652;48.802;9.190;2023-03-08T05:42:39;19.85;;;10.38;;
13173;SDS011;6652;48.802;9.190;2023-03-08T05:45:06;21.38;;;10.30;;
13173;SDS011;6652;48.802;9.190;2023-03-08T05:47:34;23.75;;;11.05;;
13173;SDS011;6652;48.802;9.190;2023-03-08T05:50:01;22.50;;;10.70;;
13173;SDS011;6652;48.802;9.190;2023-03-08T05:52:28;20.85;;;10.32;;
13173;SDS011;6652;48.802;9.190;2023-03-08T05:54:55;20.15;;;10.60;;
13173;SDS011;6652;48.802;9.190;2023-03-08T05:57:23;20.73;;;10.20;;
13173;SDS011;6652;48.802;9.190;2023-03-08T05:59:50;22.23;;;10.40;;
13173;SDS011;6652;48.802;9.190;2023-03-08T06:02:17;25.23;;;11.30;;
13173;SDS011;6652;48.802;9.190;2023-03-08T06:04:44;21.42;;;10.63;;
13173;SDS011;6652;48.802;9.190;2023-03-08T06:07:10;24.60;;;10.73;;
13173;SDS011;6652;48.802;9.190;2023-03-08T06:09:39;21.08;;;10.43;;
13173;SDS011;6652;48.802;9.190;2023-03-08T06:12:06;23.10;;;11.10;;
13173;SDS011;6652;48.802;9.190;2023-03-08T06:14:34;22.17;;;11.77;;
13173;SDS011;6652;48.802;9.190;2023-03-08T06:17:01;25.40;;;11.45;;
13173;SDS011;6652;48.802;9.190;2023-03-08T06:19:28;21.52;;;11.30;;
13173;SDS011;6652;48.802;9.190;2023-03-08T06:21:55;20.10;;;11.48;;
13173;SDS011;6652;48.802;9.190;2023-03-08T06:24:22;23.63;;;11.48;;
13173;SDS011;6652;48.802;9.190;2023-03-08T06:26:48;29.38;;;11.15;;
13173;SDS011;6652;48.802;9.190;2023-03-08T06:29:15;28.58;;;12.23;;
13173;SDS011;6652;48.802;9.190;2023-03-08T06:31:43;31.40;;;12.15;;
13173;SDS011;6652;48.802;9.190;2023-03-08T06:34:11;29.40;;;11.85;;
13173;SDS011;6652;48.802;9.190;2023-03-08T06:36:38;22.23;;;12.00;;
13173;SDS011;6652;48.802;9.190;2023-03-08T06:39:05;27.52;;;13.20;;
13173;SDS011;6652;48.802;9.190;2023-03-08T06:41:33;27.30;;;12.10;;
13173;SDS011;6652;48.802;9.190;2023-03-08T06:44:01;27.52;;;12.10;;
13173;SDS011;6652;48.802;9.190;2023-03-08T06:46:27;28.25;;;13.35;;
13173;SDS011;6652;48.802;9.190;2023-03-08T06:48:55;38.05;;;13.00;;
13173;SDS011;6652;48.802;9.190;2023-03-08T06:51:22;26.20;;;12.35;;
13173;SDS011;6652;48.802;9.190;2023-03-08T06:53:49;33.65;;;13.30;;
13173;SDS011;6652;48.802;9.190;2023-03-08T06:56:16;26.00;;;13.55;;
13173;SDS011;6652;48.802;9.190;2023-03-08T06:59:30;29.38;;;15.40;;
13173;SDS011;6652;48.802;9.190;2023-03-08T07:02:40;29.38;;;12.90;;
13173;SDS011;6652;48.802;9.190;2023-03-08T07:05:40;26.88;;;12.73;;
13173;SDS011;6652;48.802;9.190;2023-03-08T07:08:38;28.98;;;13.25;;
13173;SDS011;6652;48.802;9.190;2023-03-08T07:11:56;28.50;;;14.38;;
13173;SDS011;6652;48.802;9.190;2023-03-08T07:18:33;30.02;;;14.32;;
13173;SDS011;6652;48.802;9.190;2023-03-08T07:25:22;25.55;;;12.88;;
13173;SDS011;6652;48.802;9.190;2023-03-08T07:28:30;32.42;;;13.95;;
13173;SDS011;6652;48.802;9.190;2023-03-08T07:34:49;25.80;;;14.07;;
13173;SDS011;6652;48.802;9.190;2023-03-08T07:37:16;25.38;;;14.15;;
13173;SDS011;6652;48.802;9.190;2023-03-08T07:39:43;38.08;;;13.88;;
13173;SDS011;6652;48.802;9.190;2023-03-08T07:42:11;33.67;;;13.73;;
13173;SDS011;6652;48.802;9.190;2023-03-08T07:44:38;28.98;;;12.60;;
13173;SDS011;6652;48.802;9.190;2023-03-08T07:47:05;24.73;;;13.25;;
13173;SDS011;6652;48.802;9.190;2023-03-08T07:49:33;38.85;;;13.02;;
13173;SDS011;6652;48.802;9.190;2023-03-08T07:52:00;27.40;;;13.73;;
13173;SDS011;6652;48.802;9.190;2023-03-08T07:54:27;31.25;;;13.18;;
13173;SDS011;6652;48.802;9.190;2023-03-08T07:56:54;32.42;;;13.73;;
13173;SDS011;6652;48.802;9.190;2023-03-08T07:59:22;28.35;;;13.43;;
13173;SDS011;6652;48.802;9.190;2023-03-08T08:01:49;25.90;;;13.15;;
13173;SDS011;6652;48.802;9.190;2023-03-08T08:04:16;24.48;;;13.02;;
13173;SDS011;6652;48.802;9.190;2023-03-08T08:06:42;24.33;;;12.13;;
13173;SDS011;6652;48.802;9.190;2023-03-08T08:09:11;25.95;;;13.23;;
13173;SDS011;6652;48.802;9.190;2023-03-08T08:11:38;26.35;;;12.63;;
13173;SDS011;6652;48.802;9.190;2023-03-08T08:14:05;25.15;;;12.50;;
13173;SDS011;6652;48.802;9.190;2023-03-08T08:16:34;28.75;;;12.10;;
13173;SDS011;6652;48.802;9.190;2023-03-08T08:19:01;26.05;;;13.02;;
13173;SDS011;6652;48.802;9.190;2023-03-08T08:21:27;27.73;;;12.93;;
13173;SDS011;6652;48.802;9.190;2023-03-08T08:23:54;28.83;;;12.25;;
13173;SDS011;6652;48.802;9.190;2023-03-08T08:26:22;26.42;;;12.10;;
13173;SDS011;6652;48.802;9.190;2023-03-08T08:28:49;24.63;;;12.30;;
13173;SDS011;6652;48.802;9.190;2023-03-08T08:31:18;30.80;;;12.18;;
13173;SDS011;6652;48.802;9.190;2023-03-08T08:33:47;22.48;;;11.57;;
13173;SDS011;6652;48.802;9.190;2023-03-08T08:36:15;25.42;;;12.50;;
13173;SDS011;6652;48.802;9.190;2023-03-08T08:38:45;33.70;;;12.18;;
13173;SDS011;6652;48.802;9.190;2023-03-08T08:41:13;21.52;;;11.95;;
13173;SDS011;6652;48.802;9.190;2023-03-08T08:43:41;36.40;;;12.40;;
13173;SDS011;6652;48.802;9.190;2023-03-08T08:46:08;31.70;;;13.80;;
13173;SDS011;6652;48.802;9.190;2023-03-08T08:48:35;27.02;;;12.07;;
13173;SDS011;6652;48.802;9.190;2023-03-08T08:51:04;21.90;;;12.68;;
13173;SDS011;6652;48.802;9.190;2023-03-08T08:53:32;23.88;;;12.40;;
13173;SDS011;6652;48.802;9.190;2023-03-08T08:56:08;23.70;;;11.38;;
13173;SDS011;6652;48.802;9.190;2023-03-08T08:58:35;23.38;;;11.52;;
13173;SDS011;6652;48.802;9.190;2023-03-08T09:01:02;23.13;;;11.68;;
13173;SDS011;6652;48.802;9.190;2023-03-08T09:03:29;21.60;;;12.55;;
13173;SDS011;6652;48.802;9.190;2023-03-08T09:05:56;26.83;;;11.85;;
13173;SDS011;6652;48.802;9.190;2023-03-08T09:08:25;23.73;;;12.23;;
13173;SDS011;6652;48.802;9.190;2023-03-08T09:10:51;24.45;;;12.25;;
13173;SDS011;6652;48.802;9.190;2023-03-08T09:13:18;32.65;;;13.38;;
13173;SDS011;6652;48.802;9.190;2023-03-08T09:15:45;25.27;;;11.80;;
13173;SDS011;6652;48.802;9.190;2023-03-08T09:18:12;24.55;;;12.60;;
13173;SDS011;6652;48.802;9.190;2023-03-08T09:20:39;21.85;;;11.57;;
13173;SDS011;6652;48.802;9.190;2023-03-08T09:23:05;22.75;;;11.98;;
13173;SDS011;6652;48.802;9.190;2023-03-08T09:25:35;30.52;;;13.02;;
13173;SDS011;6652;48.802;9.190;2023-03-08T09:28:02;31.65;;;13.75;;
13173;SDS011;6652;48.802;9.190;2023-03-08T09:30:29;31.75;;;14.45;;
13173;SDS011;6652;48.802;9.190;2023-03-08T09:32:56;24.65;;;12.85;;
13173;SDS011;6652;48.802;9.190;2023-03-08T09:35:24;26.48;;;13.55;;
13173;SDS011;6652;48.802;9.190;2023-03-08T09:37:50;22.60;;;12.65;;
13173;SDS011;6652;48.802;9.190;2023-03-08T09:40:18;27.33;;;13.63;;
13173;SDS011;6652;48.802;9.190;2023-03-08T09:42:48;28.23;;;14.02;;
13173;SDS011;6652;48.802;9.190;2023-03-08T09:45:17;30.55;;;13.98;;
13173;SDS011;6652;48.802;9.190;2023-03-08T09:53:13;28.95;;;13.43;;
13173;SDS011;6652;48.802;9.190;2023-03-08T09:55:46;35.63;;;13.30;;
13173;SDS011;6652;48.802;9.190;2023-03-08T09:58:19;25.75;;;14.20;;
13173;SDS011;6652;48.802;9.190;2023-03-08T10:00:54;31.08;;;13.63;;
13173;SDS011;6652;48.802;9.190;2023-03-08T10:03:39;27.80;;;13.35;;
13173;SDS011;6652;48.802;9.190;2023-03-08T10:06:24;26.42;;;13.63;;
13173;SDS011;6652;48.802;9.190;2023-03-08T10:08:59;25.30;;;14.45;;
13173;SDS011;6652;48.802;9.190;2023-03-08T10:11:32;29.65;;;14.77;;
13173;SDS011;6652;48.802;9.190;2023-03-08T10:19:11;25.63;;;12.65;;
13173;SDS011;6652;48.802;9.190;2023-03-08T10:21:41;28.35;;;13.68;;
13173;SDS011;6652;48.802;9.190;2023-03-08T10:24:13;34.55;;;14.82;;
13173;SDS011;6652;48.802;9.190;2023-03-08T10:26:41;28.27;;;13.45;;
13173;SDS011;6652;48.802;9.190;2023-03-08T10:29:11;23.75;;;13.40;;
13173;SDS011;6652;48.802;9.190;2023-03-08T10:31:38;23.80;;;12.60;;
13173;SDS011;6652;48.802;9.190;2023-03-08T10:34:09;24.90;;;11.07;;
13173;SDS011;6652;48.802;9.190;2023-03-08T10:36:49;13.65;;;8.10;;
13173;SDS011;6652;48.802;9.190;2023-03-08T10:39:17;13.77;;;7.05;;
13173;SDS011;6652;48.802;9.190;2023-03-08T10:41:47;16.67;;;5.80;;
13173;SDS011;6652;48.802;9.190;2023-03-08T10:44:29;9.10;;;5.68;;
13173;SDS011;6652;48.802;9.190;2023-03-08T10:46:58;8.63;;;5.40;;
13173;SDS011;6652;48.802;9.190;2023-03-08T10:49:25;9.38;;;5.28;;
13173;SDS011;6652;48.802;9.190;2023-03-08T10:51:55;11.85;;;5.28;;
13173;SDS011;6652;48.802;9.190;2023-03-08T10:54:23;8.13;;;4.70;;
13173;SDS011;6652;48.802;9.190;2023-03-08T10:56:52;8.73;;;4.55;;
13173;SDS011;6652;48.802;9.190;2023-03-08T10:59:23;6.90;;;3.92;;
13173;SDS011;6652;48.802;9.190;2023-03-08T11:01:57;9.18;;;4.25;;
13173;SDS011;6652;48.802;9.190;2023-03-08T11:04:27;7.25;;;3.20;;
13173;SDS011;6652;48.802;9.190;2023-03-08T11:06:55;7.78;;;3.45;;
13173;SDS011;6652;48.802;9.190;2023-03-08T11:09:23;7.78;;;3.33;;
13173;SDS011;6652;48.802;9.190;2023-03-08T11:11:52;12.80;;;2.78;;
13173;SDS011;6652;48.802;9.190;2023-03-08T11:14:21;4.28;;;2.03;;
13173;SDS011;6652;48.802;9.190;2023-03-08T11:19:57;3.90;;;1.88;;
13173;SDS011;6652;48.802;9.190;2023-03-08T11:22:42;8.43;;;1.92;;
13173;SDS011;6652;48.802;9.190;2023-03-08T11:25:30;4.28;;;1.70;;
13173;SDS011;6652;48.802;9.190;2023-03-08T11:28:08;3.38;;;1.63;;
13173;SDS011;6652;48.802;9.190;2023-03-08T11:30:50;4.05;;;1.67;;
13173;SDS011;6652;48.802;9.190;2023-03-08T11:33:30;2.95;;;1.33;;
13173;SDS011;6652;48.802;9.190;2023-03-08T11:36:04;3.80;;;1.08;;
13173;SDS011;6652;48.802;9.190;2023-03-08T11:38:36;2.75;;;1.20;;
13173;SDS011;6652;48.802;9.190;2023-03-08T11:41:06;1.77;;;1.05;;
13173;SDS011;6652;48.802;9.190;2023-03-08T11:43:47;1.15;;;0.90;;
13173;SDS011;6652;48.802;9.190;2023-03-08T11:46:46;1.35;;;0.93;;
13173;SDS011;6652;48.802;9.190;2023-03-08T11:49:29;2.00;;;1.00;;
13173;SDS011;6652;48.802;9.190;2023-03-08T11:52:06;2.67;;;0.98;;
13173;SDS011;6652;48.802;9.190;2023-03-08T11:54:45;3.88;;;1.10;;
13173;SDS011;6652;48.802;9.190;2023-03-08T11:57:20;1.40;;;0.98;;
13173;SDS011;6652;48.802;9.190;2023-03-08T11:59:50;2.97;;;0.88;;
13173;SDS011;6652;48.802;9.190;2023-03-08T12:02:23;1.77;;;0.80;;
13173;SDS011;6652;48.802;9.190;2023-03-08T12:04:55;1.08;;;0.93;;
13173;SDS011;6652;48.802;9.190;2023-03-08T12:07:26;2.63;;;0.90;;
13173;SDS011;6652;48.802;9.190;2023-03-08T12:10:02;1.73;;;0.70;;
13173;SDS011;6652;48.802;9.190;2023-03-08T12:12:40;4.22;;;0.93;;
13173;SDS011;6652;48.802;9.190;2023-03-08T12:15:13;7.75;;;1.10;;
13173;SDS011;6652;48.802;9.190;2023-03-08T12:17:52;3.80;;;1.00;;
13173;SDS011;6652;48.802;9.190;2023-03-08T12:20:21;5.53;;;1.13;;
13173;SDS011;6652;48.802;9.190;2023-03-08T12:22:49;1.95;;;1.00;;
13173;SDS011;6652;48.802;9.190;2023-03-08T12:25:25;2.60;;;0.85;;
13173;SDS011;6652;48.802;9.190;2023-03-08T12:27:57;9.32;;;1.00;;
13173;SDS011;6652;48.802;9.190;2023-03-08T12:30:37;3.72;;;0.77;;
13173;SDS011;6652;48.802;9.190;2023-03-08T12:33:13;2.78;;;1.10;;
13173;SDS011;6652;48.802;9.190;2023-03-08T12:35:49;2.22;;;1.05;;
13173;SDS011;6652;48.802;9.190;2023-03-08T12:38:28;2.40;;;0.98;;
13173;SDS011;6652;48.802;9.190;2023-03-08T12:40:57;2.47;;;0.80;;
13173;SDS011;6652;48.802;9.190;2023-03-08T12:43:28;0.82;;;0.70;;
13173;SDS011;6652;48.802;9.190;2023-03-08T12:46:01;2.53;;;0.95;;
13173;SDS011;6652;48.802;9.190;2023-03-08T12:48:31;5.75;;;0.90;;
13173;SDS011;6652;48.802;9.190;2023-03-08T12:51:02;2.53;;;1.35;;
13173;SDS011;6652;48.802;9.190;2023-03-08T12:53:37;4.13;;;0.80;;
13173;SDS011;6652;48.802;9.190;2023-03-08T12:56:13;1.85;;;0.80;;
13173;SDS011;6652;48.802;9.190;2023-03-08T12:58:48;8.52;;;0.73;;
13173;SDS011;6652;48.802;9.190;2023-03-08T13:01:27;1.33;;;0.80;;
13173;SDS011;6652;48.802;9.190;2023-03-08T13:03:59;0.80;;;0.70;;
13173;SDS011;6652;48.802;9.190;2023-03-08T13:06:36;1.65;;;1.02;;
13173;SDS011;6652;48.802;9.190;2023-03-08T13:09:21;0.88;;;0.80;;
13173;SDS011;6652;48.802;9.190;2023-03-08T13:11:54;7.00;;;1.05;;
13173;SDS011;6652;48.802;9.190;2023-03-08T13:14:27;1.40;;;0.90;;
13173;SDS011;6652;48.802;9.190;2023-03-08T13:17:22;2.53;;;0.88;;
13173;SDS011;6652;48.802;9.190;2023-03-08T13:20:00;1.40;;;0.80;;
13173;SDS011;6652;48.802;9.190;2023-03-08T13:22:35;4.18;;;0.70;;
13173;SDS011;6652;48.802;9.190;2023-03-08T13:25:14;1.05;;;0.68;;
13173;SDS011;6652;48.802;9.190;2023-03-08T13:27:49;1.95;;;0.60;;
13173;SDS011;6652;48.802;9.190;2023-03-08T13:30:22;3.97;;;0.77;;
13173;SDS011;6652;48.802;9.190;2023-03-08T13:32:50;0.80;;;0.50;;
13173;SDS011;6652;48.802;9.190;2023-03-08T13:35:19;5.63;;;0.65;;
13173;SDS011;6652;48.802;9.190;2023-03-08T13:37:53;2.90;;;0.77;;
13173;SDS011;6652;48.802;9.190;2023-03-08T13:40:21;5.90;;;1.33;;
13173;SDS011;6652;48.802;9.190;2023-03-08T13:42:52;5.07;;;0.80;;
13173;SDS011;6652;48.802;9.190;2023-03-08T13:48:16;2.42;;;0.85;;
13173;SDS011;6652;48.802;9.190;2023-03-08T13:54:16;3.13;;;0.93;;
13173;SDS011;6652;48.802;9.190;2023-03-08T13:57:05;0.93;;;0.60;;
13173;SDS011;6652;48.802;9.190;2023-03-08T13:59:46;2.75;;;0.90;;
13173;SDS011;6652;48.802;9.190;2023-03-08T14:02:17;2.45;;;0.70;;
13173;SDS011;6652;48.802;9.190;2023-03-08T14:04:46;3.25;;;0.73;;
13173;SDS011;6652;48.802;9.190;2023-03-08T14:07:19;4.80;;;0.70;;
13173;SDS011;6652;48.802;9.190;2023-03-08T14:09:47;0.95;;;0.65;;
13173;SDS011;6652;48.802;9.190;2023-03-08T14:12:15;2.67;;;0.60;;
13173;SDS011;6652;48.802;9.190;2023-03-08T14:14:45;5.32;;;0.70;;
13173;SDS011;6652;48.802;9.190;2023-03-08T14:17:48;3.47;;;0.60;;
13173;SDS011;6652;48.802;9.190;2023-03-08T14:20:16;11.60;;;1.00;;
13173;SDS011;6652;48.802;9.190;2023-03-08T14:22:50;1.95;;;1.00;;
13173;SDS011;6652;48.802;9.190;2023-03-08T14:25:20;4.55;;;1.05;;
13173;SDS011;6652;48.802;9.190;2023-03-08T14:27:52;0.93;;;0.60;;
13173;SDS011;6652;48.802;9.190;2023-03-08T14:30:19;3.95;;;0.70;;
13173;SDS011;6652;48.802;9.190;2023-03-08T14:32:55;5.15;;;0.50;;
13173;SDS011;6652;48.802;9.190;2023-03-08T14:35:24;2.05;;;0.70;;
13173;SDS011;6652;48.802;9.190;2023-03-08T14:37:53;4.93;;;0.57;;
13173;SDS011;6652;48.802;9.190;2023-03-08T14:40:30;4.28;;;0.50;;
13173;SDS011;6652;48.802;9.190;2023-03-08T14:43:00;8.98;;;0.65;;
13173;SDS011;6652;48.802;9.190;2023-03-08T14:45:31;4.20;;;0.35;;
13173;SDS011;6652;48.802;9.190;2023-03-08T14:48:02;1.50;;;0.40;;
13173;SDS011;6652;48.802;9.190;2023-03-08T14:50:50;2.10;;;0.50;;
13173;SDS011;6652;48.802;9.190;2023-03-08T14:53:27;1.60;;;0.40;;
13173;SDS011;6652;48.802;9.190;2023-03-08T14:55:56;2.10;;;0.47;;
13173;SDS011;6652;48.802;9.190;2023-03-08T14:58:24;2.53;;;0.20;;
13173;SDS011;6652;48.802;9.190;2023-03-08T15:00:54;1.75;;;0.47;;
13173;SDS011;6652;48.802;9.190;2023-03-08T15:03:22;1.05;;;0.40;;
13173;SDS011;6652;48.802;9.190;2023-03-08T15:05:49;0.88;;;0.30;;
13173;SDS011;6652;48.802;9.190;2023-03-08T15:08:17;0.73;;;0.50;;
13173;SDS011;6652;48.802;9.190;2023-03-08T15:10:45;0.95;;;0.45;;
13173;SDS011;6652;48.802;9.190;2023-03-08T15:13:13;1.55;;;0.50;;
13173;SDS011;6652;48.802;9.190;2023-03-08T15:15:41;1.60;;;0.40;;
13173;SDS011;6652;48.802;9.190;2023-03-08T15:18:08;1.27;;;0.50;;
13173;SDS011;6652;48.802;9.190;2023-03-08T15:20:35;5.07;;;0.52;;
13173;SDS011;6652;48.802;9.190;2023-03-08T15:23:06;1.00;;;0.30;;
13173;SDS011;6652;48.802;9.190;2023-03-08T15:25:34;0.93;;;0.40;;
13173;SDS011;6652;48.802;9.190;2023-03-08T15:28:04;2.75;;;0.60;;
13173;SDS011;6652;48.802;9.190;2023-03-08T15:30:31;2.50;;;0.50;;
13173;SDS011;6652;48.802;9.190;2023-03-08T15:32:59;1.15;;;0.40;;
13173;SDS011;6652;48.802;9.190;2023-03-08T15:35:26;0.75;;;0.47;;
13173;SDS011;6652;48.802;9.190;2023-03-08T15:37:54;3.58;;;0.57;;
13173;SDS011;6652;48.802;9.190;2023-03-08T15:40:21;0.93;;;0.40;;
13173;SDS011;6652;48.802;9.190;2023-03-08T15:42:49;1.85;;;0.43;;
13173;SDS011;6652;48.802;9.190;2023-03-08T15:45:18;2.40;;;0.45;;
13173;SDS011;6652;48.802;9.190;2023-03-08T15:47:53;0.70;;;0.32;;
13173;SDS011;6652;48.802;9.190;2023-03-08T15:50:21;2.88;;;0.75;;